Time;durP1;ratioP1;P1;durP2;ratioP2;P2;SDS_P1;SDS_P2;PMS_P1;PMS_P2;Temp;Humidity;BMP_temperature;BMP_pressure;BME280_temperature;BME280_humidity;BME280_pressure;Samples;Min_cycle;Max_cycle;Signal;HPM_P1;HPM_P2
2021/12/02 00:00:11;;;;;;;0.30;0.30;;;;;;;9.88;59.00;97631.94;5038121;22;20247;-81
2021/12/02 00:02:39;;;;;;;0.40;0.40;;;;;;;9.79;59.64;97628.19;5062450;28;20265;-81
2021/12/02 00:05:26;;;;;;;1.40;0.40;;;;;;;9.78;59.51;97634.59;5047633;28;20186;-81
2021/12/02 00:08:00;;;;;;;0.53;0.50;;;;;;;9.78;60.02;97654.13;5056564;23;20268;-79
2021/12/02 00:10:30;;;;;;;0.40;0.40;;;;;;;9.78;60.03;97648.78;5071827;23;20213;-79
2021/12/02 00:12:59;;;;;;;0.30;0.30;;;;;;;9.87;59.19;97628.47;5033177;28;20236;-79
2021/12/02 00:15:32;;;;;;;0.30;0.30;;;;;;;9.85;59.09;97633.25;5050728;28;20300;-80
2021/12/02 00:21:05;;;;;;;0.20;0.20;;;;;;;10.01;58.63;97640.28;5070598;23;20301;-82
2021/12/02 00:24:03;;;;;;;0.20;0.20;;;;;;;9.95;58.69;97635.97;5054229;28;20236;-81
2021/12/02 00:26:34;;;;;;;0.50;0.30;;;;;;;10.04;58.71;97647.78;5076701;23;20271;-81
2021/12/02 00:29:10;;;;;;;0.60;0.50;;;;;;;9.92;59.06;97641.88;5060715;23;20255;-81
2021/12/02 00:31:39;;;;;;;0.33;0.30;;;;;;;9.88;59.45;97648.00;5036453;28;20233;-81
2021/12/02 00:34:08;;;;;;;0.30;0.30;;;;;;;9.85;59.36;97649.31;5070207;28;20285;-81
2021/12/02 00:36:42;;;;;;;0.37;0.30;;;;;;;9.82;59.40;97643.69;5052762;28;20305;-80
2021/12/02 00:39:19;;;;;;;0.30;0.30;;;;;;;9.78;59.72;97650.63;5049672;28;20239;-79
2021/12/02 00:41:51;;;;;;;0.30;0.30;;;;;;;9.72;59.37;97644.47;5068145;28;20255;-79
2021/12/02 00:44:34;;;;;;;0.60;0.50;;;;;;;9.75;59.54;97664.53;5064597;28;20213;-80
2021/12/02 00:47:05;;;;;;;0.40;0.40;;;;;;;9.74;59.25;97655.72;5066393;28;20237;-80
2021/12/02 00:49:38;;;;;;;0.40;0.40;;;;;;;9.72;59.29;97649.81;5069073;28;20511;-82
2021/12/02 00:52:10;;;;;;;0.40;0.40;;;;;;;9.85;58.64;97662.69;5070377;28;20225;-82
2021/12/02 00:54:43;;;;;;;0.30;0.30;;;;;;;9.97;57.72;97663.28;5077815;23;20293;-79
2021/12/02 00:57:22;;;;;;;0.30;0.30;;;;;;;9.93;57.95;97666.75;5036531;28;20191;-79
2021/12/02 01:00:14;;;;;;;0.30;0.30;;;;;;;9.94;58.20;97666.47;5082169;23;20229;-80
2021/12/02 01:02:48;;;;;;;0.10;0.10;;;;;;;10.00;57.59;97656.59;5075858;23;20223;-78
2021/12/02 01:05:19;;;;;;;0.40;0.40;;;;;;;9.99;57.38;97653.09;5022498;23;20225;-79
2021/12/02 01:07:50;;;;;;;0.20;0.20;;;;;;;10.07;56.72;97657.16;5028158;23;20238;-81
2021/12/02 01:10:28;;;;;;;0.30;0.30;;;;;;;9.98;57.52;97659.53;5049779;28;20287;-81
2021/12/02 01:13:00;;;;;;;0.30;0.30;;;;;;;9.99;57.83;97663.81;5048232;28;20256;-79
2021/12/02 01:15:31;;;;;;;0.73;0.30;;;;;;;10.02;57.34;97667.84;5060945;23;20252;-81
2021/12/02 01:18:02;;;;;;;0.20;0.20;;;;;;;10.01;57.29;97672.38;5048870;28;20609;-79
2021/12/02 01:20:32;;;;;;;0.30;0.30;;;;;;;9.93;57.56;97667.56;5046550;28;20241;-79
2021/12/02 01:23:03;;;;;;;0.20;0.20;;;;;;;9.95;57.34;97672.63;5062788;28;20550;-81
2021/12/02 01:25:40;;;;;;;0.30;0.30;;;;;;;9.89;57.69;97677.13;5073590;23;20259;-81
2021/12/02 01:28:09;;;;;;;0.40;0.40;;;;;;;10.05;57.14;97684.16;5059017;23;20267;-82
2021/12/02 01:30:37;;;;;;;0.20;0.20;;;;;;;9.98;57.11;97672.13;5083085;23;20225;-82
2021/12/02 01:33:08;;;;;;;0.93;0.30;;;;;;;9.93;57.27;97680.13;5053862;28;20232;-81
2021/12/02 01:35:43;;;;;;;0.30;0.27;;;;;;;9.81;57.67;97674.16;5045102;23;20281;-79
2021/12/02 01:38:21;;;;;;;0.20;0.20;;;;;;;9.77;58.68;97687.28;5082390;22;20268;-83
2021/12/02 01:41:33;;;;;;;0.30;0.30;;;;;;;9.71;59.05;97688.31;5045394;22;20167;-81
2021/12/02 01:44:58;;;;;;;0.73;0.40;;;;;;;9.64;59.64;97688.56;5070827;23;20213;-80
2021/12/02 01:48:16;;;;;;;1.10;0.70;;;;;;;9.46;60.62;97691.69;5085805;23;20234;-82
2021/12/02 01:51:40;;;;;;;0.93;0.60;;;;;;;9.36;61.27;97699.63;5077589;23;20229;-81
2021/12/02 01:54:33;;;;;;;0.60;0.50;;;;;;;9.27;61.50;97690.50;5046329;23;20244;-82
2021/12/02 01:57:59;;;;;;;0.50;0.50;;;;;;;9.24;61.55;97686.44;5074798;28;20216;-81
2021/12/02 02:01:04;;;;;;;0.50;0.50;;;;;;;9.21;61.37;97695.00;5078389;28;20173;-82
2021/12/02 02:04:01;;;;;;;0.37;0.37;;;;;;;9.07;62.42;97691.16;5073278;23;20301;-82
2021/12/02 02:07:02;;;;;;;0.33;0.33;;;;;;;9.03;62.42;97675.91;5074020;23;20263;-82
2021/12/02 02:09:34;;;;;;;0.50;0.50;;;;;;;8.94;62.24;97661.41;5077360;28;20218;-82
2021/12/02 02:12:33;;;;;;;0.93;0.57;;;;;;;8.95;62.24;97665.69;5084059;23;20282;-82
2021/12/02 02:15:33;;;;;;;1.00;0.80;;;;;;;8.93;62.70;97659.78;5082137;23;20284;-82
2021/12/02 02:18:29;;;;;;;1.37;1.00;;;;;;;8.87;62.76;97650.13;5081940;23;20170;-82
2021/12/02 02:21:03;;;;;;;1.50;1.00;;;;;;;8.79;63.19;97654.91;5074557;28;20233;-81
2021/12/02 02:23:38;;;;;;;0.97;0.83;;;;;;;8.72;63.53;97653.50;5082052;23;20237;-79
2021/12/02 02:26:22;;;;;;;1.27;1.07;;;;;;;8.61;63.75;97663.28;5076939;28;20220;-82
2021/12/02 02:29:36;;;;;;;0.63;0.60;;;;;;;8.59;64.15;97651.25;5059366;28;20221;-82
2021/12/02 02:32:29;;;;;;;0.50;0.50;;;;;;;8.50;63.85;97650.09;5078077;28;20169;-83
2021/12/02 02:35:32;;;;;;;0.37;0.37;;;;;;;8.50;64.15;97652.78;5118024;23;20231;-81
2021/12/02 02:38:37;;;;;;;0.50;0.50;;;;;;;8.44;64.67;97654.63;5056272;23;20215;-82
2021/12/02 02:41:30;;;;;;;0.50;0.50;;;;;;;8.27;65.20;97662.69;5072470;28;20233;-81
2021/12/02 02:44:20;;;;;;;0.50;0.40;;;;;;;8.24;65.38;97654.38;5054898;28;20296;-82
2021/12/02 02:47:12;;;;;;;0.30;0.30;;;;;;;8.18;65.43;97656.19;5081196;23;20252;-82
2021/12/02 02:50:14;;;;;;;0.33;0.30;;;;;;;8.17;65.40;97643.09;5073355;28;20232;-82
2021/12/02 02:52:44;;;;;;;0.40;0.30;;;;;;;8.18;65.47;97652.72;5074336;28;20188;-83
2021/12/02 02:56:17;;;;;;;0.73;0.50;;;;;;;8.10;66.29;97662.00;5059931;22;20309;-82
2021/12/02 02:59:42;;;;;;;0.60;0.60;;;;;;;8.03;66.63;97660.56;5025363;22;20194;-80
2021/12/02 03:02:49;;;;;;;0.80;0.63;;;;;;;7.95;66.90;97661.81;5045323;23;20252;-81
2021/12/02 03:06:23;;;;;;;0.93;0.90;;;;;;;7.95;66.12;97661.81;5042511;28;20284;-82
2021/12/02 03:09:25;;;;;;;0.93;0.80;;;;;;;8.02;65.77;97659.78;5076420;22;20251;-80
2021/12/02 03:12:27;;;;;;;1.13;0.90;;;;;;;7.90;66.36;97677.75;5060548;22;20295;-81
2021/12/02 03:18:57;;;;;;;2.30;0.90;;;;;;;7.73;67.05;97661.84;5052293;22;20238;-83
2021/12/02 03:21:54;;;;;;;1.60;0.80;;;;;;;7.70;67.23;97665.00;5049384;23;20233;-82
2021/12/02 03:24:31;;;;;;;1.47;0.70;;;;;;;7.75;67.41;97674.91;5063858;22;20230;-82
2021/12/02 03:27:20;;;;;;;1.10;1.00;;;;;;;7.72;67.21;97678.06;5041080;28;20190;-82
2021/12/02 03:29:56;;;;;;;0.80;0.80;;;;;;;7.65;67.72;97656.94;5069850;23;20253;-82
2021/12/02 03:32:42;;;;;;;0.80;0.77;;;;;;;7.72;67.17;97667.41;5074715;28;20264;-83
2021/12/02 03:35:11;;;;;;;1.07;0.80;;;;;;;7.64;67.19;97660.66;5080053;23;20218;-82
2021/12/02 03:37:40;;;;;;;0.80;0.70;;;;;;;7.69;67.43;97668.72;5072152;28;20247;-82
2021/12/02 03:40:13;;;;;;;2.27;1.00;;;;;;;7.72;67.59;97675.41;5058372;23;20233;-82
2021/12/02 03:42:51;;;;;;;1.20;1.03;;;;;;;7.71;67.80;97687.94;5038615;28;20193;-82
2021/12/02 03:45:37;;;;;;;1.10;0.80;;;;;;;7.66;68.80;97682.53;4956793;29;20237;-82
2021/12/02 03:48:22;;;;;;;1.00;0.90;;;;;;;7.62;68.89;97675.28;4973623;29;20229;-81
2021/12/02 03:50:59;;;;;;;1.10;1.00;;;;;;;7.57;68.97;97670.69;4973312;29;20250;-82
2021/12/02 03:53:27;;;;;;;1.03;0.93;;;;;;;7.54;69.39;97676.53;5010464;23;20241;-81
2021/12/02 03:55:54;;;;;;;1.80;1.70;;;;;;;7.46;68.94;97666.31;5071314;28;20269;-81
2021/12/02 03:58:45;;;;;;;2.47;2.20;;;;;;;7.50;69.18;97686.88;5070553;28;20240;-82
2021/12/02 04:01:16;;;;;;;3.33;3.03;;;;;;;7.43;69.49;97677.44;5069329;28;20165;-82
2021/12/02 04:04:08;;;;;;;2.23;2.10;;;;;;;7.48;69.68;97691.63;5076374;23;20666;-81
2021/12/02 04:06:36;;;;;;;1.80;1.70;;;;;;;7.39;69.71;97693.13;5070609;28;20297;-81
2021/12/02 04:09:22;;;;;;;2.23;1.47;;;;;;;7.42;69.17;97700.59;5073364;28;20233;-82
2021/12/02 04:12:02;;;;;;;1.30;1.20;;;;;;;7.33;69.94;97696.75;5078354;23;20255;-82
2021/12/02 04:14:37;;;;;;;1.83;1.60;;;;;;;7.28;69.68;97691.34;5057895;23;20256;-81
2021/12/02 04:17:07;;;;;;;1.97;1.20;;;;;;;7.25;68.85;97688.38;5074849;23;20995;-82
2021/12/02 04:19:41;;;;;;;1.60;1.13;;;;;;;7.36;68.68;97698.94;5067638;23;20225;-82
2021/12/02 04:22:12;;;;;;;1.43;1.23;;;;;;;7.22;68.98;97688.88;5040659;23;20226;-81
2021/12/02 04:24:56;;;;;;;1.30;1.20;;;;;;;7.20;69.65;97685.63;5082546;23;20240;-81
2021/12/02 04:27:24;;;;;;;1.37;1.10;;;;;;;7.24;69.58;97692.91;5078066;23;20237;-81
2021/12/02 04:30:04;;;;;;;1.70;1.17;;;;;;;7.27;69.40;97699.59;5077850;23;20232;-82
2021/12/02 04:32:33;;;;;;;1.40;1.23;;;;;;;7.20;69.13;97691.78;5052979;28;20725;-83
2021/12/02 04:35:05;;;;;;;1.27;1.17;;;;;;;7.24;70.03;97708.06;5052328;28;20225;-82
2021/12/02 04:37:34;;;;;;;2.00;1.30;;;;;;;7.17;69.26;97692.28;5069807;28;20232;-82
2021/12/02 04:40:06;;;;;;;3.13;1.30;;;;;;;7.23;69.47;97711.81;5067081;28;20202;-81
2021/12/02 04:42:33;;;;;;;1.43;1.33;;;;;;;7.20;69.17;97706.94;5053021;23;20244;-81
2021/12/02 04:45:01;;;;;;;1.90;1.40;;;;;;;7.20;69.33;97717.59;5058799;23;20246;-82
2021/12/02 04:47:28;;;;;;;1.57;1.30;;;;;;;7.15;70.02;97698.88;5050521;28;20275;-81
2021/12/02 04:50:04;;;;;;;1.43;1.33;;;;;;;7.18;69.70;97701.06;5051939;28;20232;-81
2021/12/02 04:52:32;;;;;;;1.73;1.30;;;;;;;7.16;70.36;97700.50;5068775;28;20296;-81
2021/12/02 04:55:01;;;;;;;1.40;1.30;;;;;;;7.10;69.87;97688.97;5068219;28;20229;-81
2021/12/02 04:57:29;;;;;;;2.43;1.50;;;;;;;7.09;70.13;97701.47;5067580;28;20198;-82
2021/12/02 04:59:56;;;;;;;2.07;1.30;;;;;;;7.17;70.34;97710.91;5070315;23;20297;-81
2021/12/02 05:02:23;;;;;;;2.03;1.70;;;;;;;7.11;70.92;97709.22;5032433;28;20201;-82
2021/12/02 05:04:52;;;;;;;2.13;1.67;;;;;;;7.13;70.93;97714.31;5077244;22;20229;-81
2021/12/02 05:07:24;;;;;;;1.83;1.60;;;;;;;7.11;70.69;97705.75;5045787;23;20281;-82
2021/12/02 05:09:56;;;;;;;3.27;1.50;;;;;;;7.07;71.12;97705.44;5033788;28;20215;-82
2021/12/02 05:12:25;;;;;;;2.27;1.60;;;;;;;7.04;70.71;97700.59;5074347;23;20236;-82
2021/12/02 05:15:04;;;;;;;3.57;2.57;;;;;;;7.05;71.39;97694.22;5074315;23;20245;-82
2021/12/02 05:17:34;;;;;;;2.87;2.00;;;;;;;7.04;71.10;97690.78;5049269;28;20251;-82
2021/12/02 05:20:03;;;;;;;5.17;3.40;;;;;;;7.08;71.55;97699.88;5063006;28;20225;-82
2021/12/02 05:22:32;;;;;;;4.40;3.10;;;;;;;7.05;70.96;97713.66;5064563;28;20235;-82
2021/12/02 05:24:59;;;;;;;6.23;3.87;;;;;;;6.97;71.13;97715.94;5030221;28;20253;-83
2021/12/02 05:27:27;;;;;;;3.80;2.87;;;;;;;6.94;71.03;97701.25;5045459;28;20264;-83
2021/12/02 05:29:54;;;;;;;5.73;3.13;;;;;;;6.97;71.11;97707.94;5066850;28;20637;-81
2021/12/02 05:32:21;;;;;;;5.27;3.83;;;;;;;6.86;71.96;97698.19;5049682;28;20209;-83
2021/12/02 05:34:56;;;;;;;6.73;4.53;;;;;;;6.92;71.48;97700.69;5051301;28;20255;-81
2021/12/02 05:37:27;;;;;;;7.63;4.20;;;;;;;6.90;71.61;97707.31;5077307;28;20205;-82
2021/12/02 05:40:19;;;;;;;5.50;3.60;;;;;;;6.78;71.86;97701.25;5061868;28;20587;-82
2021/12/02 05:42:50;;;;;;;4.90;3.50;;;;;;;6.71;71.79;97677.47;5094208;23;20220;-81
2021/12/02 05:46:06;;;;;;;5.10;2.80;;;;;;;6.85;71.62;97688.59;5054613;23;20243;31
2021/12/02 05:48:48;;;;;;;5.07;3.37;;;;;;;6.82;71.95;97679.22;5067327;22;20232;-81
2021/12/02 05:51:48;;;;;;;4.20;3.20;;;;;;;6.86;71.39;97703.53;5047892;23;20293;-81
2021/12/02 05:54:20;;;;;;;4.23;2.90;;;;;;;6.83;71.03;97706.66;5036587;28;20293;-81
2021/12/02 05:57:08;;;;;;;4.80;3.37;;;;;;;6.78;71.33;97703.91;5055753;28;20202;-81
2021/12/02 05:59:37;;;;;;;6.40;3.87;;;;;;;6.73;71.96;97693.19;5038831;28;20205;-82
2021/12/02 06:02:11;;;;;;;3.80;2.63;;;;;;;6.66;71.13;97696.00;5149206;22;20228;-81
2021/12/02 06:04:52;;;;;;;4.47;3.17;;;;;;;6.77;71.27;97718.25;5038956;28;20214;-81
2021/12/02 06:07:21;;;;;;;3.50;2.80;;;;;;;6.68;71.97;97690.44;5056722;28;20174;-82
2021/12/02 06:09:52;;;;;;;2.93;2.63;;;;;;;6.69;72.34;97705.34;5042659;23;20231;-82
2021/12/02 06:12:44;;;;;;;4.33;2.70;;;;;;;6.77;72.17;97711.09;5143679;23;20307;-80
2021/12/02 06:15:22;;;;;;;4.73;3.70;;;;;;;6.69;71.53;97697.38;5014232;28;20243;-80
2021/12/02 06:18:01;;;;;;;5.67;4.10;;;;;;;6.65;72.58;97691.72;5112663;23;20219;-81
2021/12/02 06:21:08;;;;;;;5.07;4.30;;;;;;;6.75;72.28;97704.41;5037058;23;20237;-82
2021/12/02 06:24:05;;;;;;;6.87;4.77;;;;;;;6.76;72.16;97692.72;5047854;23;20213;-81
2021/12/02 06:26:46;;;;;;;6.03;4.63;;;;;;;6.77;70.91;97707.59;5077885;28;20196;-81
2021/12/02 06:29:33;;;;;;;5.80;4.73;;;;;;;6.79;71.84;97713.50;5079787;23;20225;-81
2021/12/02 06:32:13;;;;;;;6.27;5.23;;;;;;;6.74;71.67;97694.78;5064712;23;20275;-81
2021/12/02 06:35:16;;;;;;;7.67;4.90;;;;;;;6.85;71.15;97707.22;5083208;23;20231;-80
2021/12/02 06:38:11;;;;;;;7.00;3.90;;;;;;;6.88;69.69;97707.53;5082002;22;20243;-81
2021/12/02 06:40:42;;;;;;;4.77;3.93;;;;;;;6.82;70.02;97710.34;5059980;23;20237;-81
2021/12/02 06:43:15;;;;;;;7.93;4.17;;;;;;;6.77;70.29;97711.09;5012662;28;20217;-81
2021/12/02 06:45:45;;;;;;;4.53;2.73;;;;;;;6.92;70.07;97727.31;5029891;28;20196;-81
2021/12/02 06:48:12;;;;;;;5.80;3.80;;;;;;;6.88;69.79;97723.53;5030189;28;20229;-81
2021/12/02 06:50:42;;;;;;;5.07;4.07;;;;;;;6.86;70.66;97728.25;5030883;28;20190;-82
2021/12/02 06:53:16;;;;;;;14.00;4.33;;;;;;;6.87;70.65;97724.56;5045445;28;20245;-81
2021/12/02 06:55:46;;;;;;;8.27;4.10;;;;;;;6.82;71.18;97734.31;5032322;28;20297;-81
2021/12/02 06:58:12;;;;;;;6.60;4.30;;;;;;;6.84;71.29;97735.69;5029177;28;20238;-81
2021/12/02 07:00:40;;;;;;;7.17;4.47;;;;;;;6.86;70.45;97736.25;5014439;28;20340;-81
2021/12/02 07:03:07;;;;;;;12.60;5.27;;;;;;;6.89;70.26;97750.94;5028720;28;20190;-81
2021/12/02 07:05:34;;;;;;;10.53;6.93;;;;;;;6.98;70.13;97752.97;5065026;23;20255;-81
2021/12/02 07:08:06;;;;;;;9.83;5.97;;;;;;;7.05;69.10;97739.47;5086305;28;20562;-81
2021/12/02 07:10:40;;;;;;;9.20;6.60;;;;;;;7.01;69.36;97749.81;5066986;28;20253;-81
2021/12/02 07:13:06;;;;;;;7.73;5.03;;;;;;;7.06;69.34;97757.88;5089170;22;20252;-82
2021/12/02 07:15:45;;;;;;;9.53;4.87;;;;;;;7.07;69.38;97758.69;5070128;28;20232;-81
2021/12/02 07:18:20;;;;;;;6.07;4.70;;;;;;;7.10;69.96;97758.19;5093478;22;20240;-81
2021/12/02 07:21:16;;;;;;;12.13;4.60;;;;;;;7.17;69.46;97755.38;5092049;28;20220;-83
2021/12/02 07:24:13;;;;;;;11.90;4.60;;;;;;;7.15;69.04;97744.97;5095361;28;20228;-84
2021/12/02 07:27:31;;;;;;;7.70;4.37;;;;;;;7.25;69.33;97750.44;5635796;23;20240;-83
2021/12/02 07:34:00;;;;;;;18.87;9.37;;;;;;;7.45;68.16;97763.28;4970334;28;20244;-81
2021/12/02 07:36:33;;;;;;;31.33;13.17;;;;;;;7.51;68.53;97773.75;4939640;29;20221;-81
2021/12/02 07:39:18;;;;;;;22.63;10.70;;;;;;;7.57;67.57;97777.28;4977368;28;20237;-81
2021/12/02 07:41:49;;;;;;;19.43;9.30;;;;;;;7.53;68.15;97761.00;5036197;23;20225;-82
2021/12/02 07:44:32;;;;;;;12.77;7.53;;;;;;;7.61;68.33;97769.59;5011072;28;20179;-81
2021/12/02 07:47:01;;;;;;;17.23;8.50;;;;;;;7.52;69.10;97754.03;5026893;28;20325;-81
2021/12/02 07:49:28;;;;;;;13.40;7.20;;;;;;;7.65;68.01;97755.53;5052483;28;20321;-81
2021/12/02 07:51:59;;;;;;;14.47;6.97;;;;;;;7.68;68.07;97773.72;5035914;28;20223;-82
2021/12/02 07:54:27;;;;;;;11.17;6.03;;;;;;;7.65;68.26;97762.75;5042918;28;20224;-81
2021/12/02 07:56:55;;;;;;;8.43;5.10;;;;;;;7.67;68.90;97772.13;5013353;28;20285;-81
2021/12/02 07:59:22;;;;;;;10.67;4.30;;;;;;;7.83;68.04;97773.13;5013081;28;20254;-81
2021/12/02 08:02:00;;;;;;;8.73;5.20;;;;;;;7.87;67.08;97779.59;5030171;28;20621;-82
2021/12/02 08:04:38;;;;;;;8.70;5.17;;;;;;;7.85;66.69;97773.69;5029816;23;20310;-81
2021/12/02 08:07:23;;;;;;;7.70;4.20;;;;;;;7.93;66.43;97773.28;5014899;28;20225;-81
2021/12/02 08:09:50;;;;;;;5.03;4.03;;;;;;;8.00;65.79;97770.41;5030633;28;20226;-81
2021/12/02 08:12:20;;;;;;;4.87;3.67;;;;;;;7.93;66.01;97768.72;5029942;28;20228;-81
2021/12/02 08:15:10;;;;;;;5.17;3.30;;;;;;;8.09;65.95;97791.06;5025697;23;20231;-81
2021/12/02 08:17:47;;;;;;;5.20;3.83;;;;;;;8.12;66.48;97787.09;5020979;28;20231;-82
2021/12/02 08:20:20;;;;;;;6.23;3.90;;;;;;;8.25;66.20;97803.53;5022083;28;20255;-81
2021/12/02 08:22:52;;;;;;;5.47;3.83;;;;;;;8.23;65.91;97791.50;4992464;28;20223;-81
2021/12/02 08:25:27;;;;;;;6.53;4.10;;;;;;;8.25;65.78;97795.53;5007869;28;20238;-81
2021/12/02 08:27:59;;;;;;;4.10;3.50;;;;;;;8.43;64.86;97794.44;5014795;23;20239;-81
2021/12/02 08:30:27;;;;;;;6.93;3.40;;;;;;;8.44;64.71;97804.06;4989793;28;20326;-81
2021/12/02 08:33:04;;;;;;;5.27;3.03;;;;;;;8.46;64.71;97804.59;5029429;23;20238;-81
2021/12/02 08:35:34;;;;;;;4.10;2.97;;;;;;;8.58;64.51;97807.16;5026541;23;20229;-81
2021/12/02 08:38:19;;;;;;;4.57;2.93;;;;;;;8.64;64.32;97798.91;4994908;28;20245;-81
2021/12/02 08:40:49;;;;;;;3.87;2.77;;;;;;;8.73;64.42;97794.75;5042075;23;20232;-81
2021/12/02 08:43:18;;;;;;;4.83;2.80;;;;;;;8.77;64.13;97803.84;5023375;28;20234;-81
2021/12/02 08:45:49;;;;;;;4.77;2.90;;;;;;;8.83;64.00;97797.53;5026761;28;20261;-81
2021/12/02 08:48:17;;;;;;;4.40;3.20;;;;;;;8.83;63.40;97799.38;4927359;29;20246;-81
2021/12/02 08:50:47;;;;;;;3.50;2.90;;;;;;;8.88;63.85;97793.28;4952415;23;20301;-81
2021/12/02 08:53:21;;;;;;;3.63;3.00;;;;;;;8.95;64.12;97796.56;5006695;28;21044;-81
2021/12/02 08:55:57;;;;;;;3.73;3.13;;;;;;;8.97;63.27;97778.41;5006308;28;20290;-82
2021/12/02 08:58:26;;;;;;;5.00;3.40;;;;;;;9.00;63.11;97778.72;5004905;28;20214;-82
2021/12/02 09:00:55;;;;;;;6.63;3.33;;;;;;;9.08;63.35;97782.78;4988524;28;20241;-81
2021/12/02 09:03:25;;;;;;;5.33;2.97;;;;;;;9.19;62.98;97787.94;4987576;28;20207;-81
2021/12/02 09:06:00;;;;;;;7.17;2.93;;;;;;;9.23;62.73;97789.06;5068174;23;20530;-81
2021/12/02 09:08:39;;;;;;;5.23;4.00;;;;;;;9.21;63.00;97785.03;4983387;28;20223;-81
2021/12/02 09:11:07;;;;;;;5.77;4.73;;;;;;;9.24;62.31;97779.97;4984683;28;20248;-81
2021/12/02 09:13:34;;;;;;;7.80;4.70;;;;;;;9.25;61.94;97783.44;4984355;28;20337;-81
2021/12/02 09:16:01;;;;;;;6.20;4.17;;;;;;;9.18;62.73;97798.91;5000100;28;20228;-81
2021/12/02 09:18:29;;;;;;;8.33;6.90;;;;;;;9.17;62.84;97787.41;5002572;28;20215;-81
2021/12/02 09:21:03;;;;;;;5.83;5.10;;;;;;;9.22;62.98;97790.13;4984581;28;20282;-82
2021/12/02 09:23:33;;;;;;;5.27;3.70;;;;;;;9.29;62.76;97793.38;4985461;28;20319;-81
2021/12/02 09:26:01;;;;;;;5.50;3.60;;;;;;;9.31;62.95;97798.47;4984145;28;20279;-80
2021/12/02 09:28:30;;;;;;;5.47;4.27;;;;;;;9.39;63.03;97806.00;4968439;28;20242;-82
2021/12/02 09:30:57;;;;;;;7.57;5.77;;;;;;;9.29;62.47;97796.03;4986081;28;20295;-81
2021/12/02 09:33:28;;;;;;;5.87;5.23;;;;;;;9.41;63.14;97809.25;4985043;28;20513;-82
2021/12/02 09:35:55;;;;;;;4.53;3.53;;;;;;;9.46;63.02;97803.13;5002484;28;20464;-81
2021/12/02 09:38:25;;;;;;;7.30;4.57;;;;;;;9.29;64.78;97803.25;4986608;28;20208;-82
2021/12/02 09:40:52;;;;;;;6.50;4.73;;;;;;;9.35;64.59;97801.44;4969248;28;20275;-81
2021/12/02 09:43:20;;;;;;;5.43;4.80;;;;;;;9.41;64.99;97809.25;4985993;28;20291;-82
2021/12/02 09:45:51;;;;;;;5.27;4.47;;;;;;;9.50;65.48;97813.06;5010637;23;20207;-82
2021/12/02 09:48:19;;;;;;;6.97;4.77;;;;;;;9.52;65.21;97805.56;4956246;28;20327;-81
2021/12/02 09:51:03;;;;;;;6.37;4.17;;;;;;;9.54;65.64;97805.31;4971495;28;20237;-81
2021/12/02 09:54:00;;;;;;;7.83;5.33;;;;;;;9.49;65.04;97798.06;4987630;28;20227;-81
2021/12/02 09:56:38;;;;;;;7.53;6.40;;;;;;;9.59;64.66;97808.03;4997556;28;20227;-81
2021/12/02 09:59:11;;;;;;;10.87;8.77;;;;;;;9.59;64.85;97789.31;4981696;23;20308;-81
2021/12/02 10:01:48;;;;;;;9.47;6.80;;;;;;;9.59;65.45;97795.47;4969510;28;20192;-81
2021/12/02 10:04:49;;;;;;;10.50;6.90;;;;;;;9.73;66.55;97793.97;4977083;28;20224;-81
2021/12/02 10:10:05;;;;;;;9.20;7.10;;;;;;;9.73;66.77;97785.13;4985200;28;20275;-81
2021/12/02 10:12:37;;;;;;;8.47;6.87;;;;;;;9.66;66.07;97782.66;4962096;28;20239;-82
2021/12/02 10:15:13;;;;;;;7.13;6.13;;;;;;;9.67;66.36;97784.28;4982612;28;20255;-81
2021/12/02 10:17:47;;;;;;;7.97;6.17;;;;;;;9.58;66.77;97793.84;4989868;28;20239;-81
2021/12/02 10:23:36;;;;;;;7.47;6.30;;;;;;;9.45;67.28;97802.31;4924416;23;20234;-81
2021/12/02 10:26:06;;;;;;;7.83;6.07;;;;;;;9.29;67.02;97796.03;5010522;28;20671;-81
2021/12/02 10:28:52;;;;;;;6.47;5.30;;;;;;;9.34;66.88;97799.81;4998833;28;20226;-81
2021/12/02 10:31:23;;;;;;;9.33;5.70;;;;;;;9.20;67.25;97786.88;5042740;28;20638;-81
2021/12/02 10:33:54;;;;;;;6.67;5.40;;;;;;;9.20;68.07;97794.91;5044750;28;20230;-81
2021/12/02 10:36:39;;;;;;;7.33;4.77;;;;;;;9.26;68.29;97793.09;5026964;28;20318;-81
2021/12/02 10:39:21;;;;;;;10.17;4.70;;;;;;;9.17;68.73;97787.41;5029997;28;20229;-81
2021/12/02 10:42:05;;;;;;;8.57;5.53;;;;;;;9.12;69.75;97803.41;5033339;23;20221;-81
2021/12/02 10:44:44;;;;;;;6.77;5.13;;;;;;;9.04;70.18;97797.72;4981239;28;20237;-81
2021/12/02 10:47:13;;;;;;;7.17;4.90;;;;;;;9.01;69.75;97795.53;5008091;28;20281;-82
2021/12/02 10:49:47;;;;;;;5.97;5.10;;;;;;;9.11;70.81;97804.44;4974065;28;20257;-81
2021/12/02 10:52:22;;;;;;;8.07;5.10;;;;;;;9.12;70.29;97803.41;5005710;28;20231;-81
2021/12/02 10:55:05;;;;;;;7.37;5.00;;;;;;;9.02;70.77;97797.97;4999328;23;20254;-80
2021/12/02 10:57:35;;;;;;;7.63;5.53;;;;;;;8.99;71.81;97805.69;5009926;28;20281;-82
2021/12/02 11:00:12;;;;;;;5.87;5.10;;;;;;;8.84;72.49;97812.50;5008408;28;20234;-82
2021/12/02 11:02:58;;;;;;;8.87;5.10;;;;;;;8.84;72.44;97814.34;5004219;28;20548;-82
2021/12/02 11:05:32;;;;;;;5.43;4.43;;;;;;;8.68;73.17;97826.72;4962615;23;20208;-82
2021/12/02 11:08:09;;;;;;;5.70;4.30;;;;;;;8.55;73.38;97813.78;4950740;29;20215;-82
2021/12/02 11:10:46;;;;;;;2.80;2.03;;;;;;;8.63;71.36;97812.53;4952691;29;20235;-82
2021/12/02 11:13:19;;;;;;;2.60;2.20;;;;;;;8.68;69.97;97807.22;4973624;29;20202;-82
2021/12/02 11:15:51;;;;;;;3.10;2.80;;;;;;;8.73;71.13;97799.28;5038439;23;20235;-82
2021/12/02 11:18:21;;;;;;;4.10;2.60;;;;;;;8.78;72.37;97799.31;4989409;28;20231;-82
2021/12/02 11:20:59;;;;;;;4.27;2.80;;;;;;;8.84;73.01;97799.13;5036285;23;20248;-82
2021/12/02 11:23:37;;;;;;;3.70;3.13;;;;;;;8.94;73.17;97803.78;5036003;23;20233;-83
2021/12/02 11:26:18;;;;;;;2.87;2.60;;;;;;;8.98;72.54;97796.06;5126451;23;20237;-82
2021/12/02 11:28:47;;;;;;;5.23;3.20;;;;;;;9.03;72.44;97799.56;4945750;29;20260;-81
2021/12/02 11:31:20;;;;;;;4.13;3.40;;;;;;;9.15;72.11;97796.72;4926173;29;20272;-82
2021/12/02 11:33:52;;;;;;;4.33;3.00;;;;;;;9.22;72.13;97797.34;4916442;29;20308;-83
2021/12/02 11:36:28;;;;;;;3.57;2.80;;;;;;;9.20;71.95;97789.56;4945983;29;20230;-82
2021/12/02 11:38:59;;;;;;;4.03;3.00;;;;;;;9.29;72.43;97792.56;4945579;29;20236;-82
2021/12/02 11:41:31;;;;;;;3.00;2.70;;;;;;;9.28;72.15;97799.78;4931555;29;20255;-82
2021/12/02 11:44:04;;;;;;;4.80;3.00;;;;;;;9.32;72.67;97800.09;4930927;29;20302;-83
2021/12/02 11:46:42;;;;;;;3.73;3.10;;;;;;;9.38;72.70;97803.63;4916594;29;20258;-83
2021/12/02 11:49:09;;;;;;;5.83;3.33;;;;;;;9.34;72.35;97792.59;4930545;29;20253;-83
2021/12/02 11:51:40;;;;;;;6.10;3.60;;;;;;;9.15;73.40;97781.50;5138624;23;20261;-82
2021/12/02 11:54:13;;;;;;;5.43;3.70;;;;;;;9.19;72.81;97779.94;5015826;28;20259;-83
2021/12/02 11:56:40;;;;;;;4.03;3.63;;;;;;;9.28;73.80;97794.44;5026432;28;20223;-82
2021/12/02 11:59:09;;;;;;;4.83;3.20;;;;;;;9.25;73.33;97786.13;5013195;23;20623;-83
2021/12/02 12:01:42;;;;;;;4.43;3.60;;;;;;;9.35;73.31;97790.75;4989894;28;20227;-82
2021/12/02 12:04:19;;;;;;;5.90;4.13;;;;;;;9.43;72.70;97788.41;4991147;28;20196;-82
2021/12/02 12:07:11;;;;;;;5.50;4.20;;;;;;;9.41;73.23;97793.22;5114778;23;20222;-82
2021/12/02 12:09:39;;;;;;;4.83;3.90;;;;;;;9.43;72.58;97787.59;4993087;23;20238;-82
2021/12/02 12:12:12;;;;;;;5.80;4.40;;;;;;;9.38;72.75;97782.22;4990749;23;20231;-82
2021/12/02 12:14:48;;;;;;;5.70;4.10;;;;;;;9.48;72.67;97783.09;4993158;28;20203;-82
2021/12/02 12:17:20;;;;;;;5.97;4.13;;;;;;;9.52;72.04;97775.34;5008291;28;20250;-82
2021/12/02 12:19:51;;;;;;;5.03;4.27;;;;;;;9.52;71.84;97781.50;5012021;28;20203;-82
2021/12/02 12:22:35;;;;;;;4.60;4.17;;;;;;;9.47;72.33;97780.69;5015818;23;20219;-83
2021/12/02 12:25:09;;;;;;;7.37;4.37;;;;;;;9.38;71.80;97783.00;5025035;23;20320;-82
2021/12/02 12:27:40;;;;;;;5.37;3.97;;;;;;;9.40;71.96;97778.22;5032003;23;20231;-82
2021/12/02 12:30:24;;;;;;;6.17;3.80;;;;;;;9.48;71.68;97780.41;5004495;28;20322;-82
2021/12/02 12:33:34;;;;;;;5.73;4.20;;;;;;;9.40;72.09;97778.22;5013772;23;20286;-81
2021/12/02 12:36:13;;;;;;;4.30;3.30;;;;;;;9.46;71.41;97784.44;4994815;28;20286;-82
2021/12/02 12:38:42;;;;;;;4.37;3.63;;;;;;;9.21;72.50;97755.63;5028745;23;20241;-82
2021/12/02 12:41:22;;;;;;;4.07;3.50;;;;;;;9.36;73.02;97769.13;5028197;28;20207;-82
2021/12/02 12:43:58;;;;;;;4.73;3.50;;;;;;;9.35;72.75;97766.69;5055956;23;20272;-81
2021/12/02 12:46:38;;;;;;;3.53;3.03;;;;;;;9.32;72.26;97760.00;5095004;23;20229;-81
2021/12/02 12:49:35;;;;;;;4.80;2.57;;;;;;;9.32;71.27;97756.53;5048446;23;20229;-82